Time;durP1;ratioP1;P1;durP2;ratioP2;P2;SDS_P1;SDS_P2;PMS_P1;PMS_P2;Temp;Humidity;BMP_temperature;BMP_pressure;BME280_temperature;BME280_humidity;BME280_pressure;Samples;Min_cycle;Max_cycle;Signal;HPM_P1;HPM_P2
2023/11/13 00:01:05;;;;;;;;;;;;;;;28.28;54.40;101038.53;5093345;27;66491;-34
2023/11/13 00:03:35;;;;;;;;;;;;;;;28.40;55.44;101044.19;5093035;27;70391;-33
2023/11/13 00:06:05;;;;;;;;;;;;;;;28.49;55.72;101046.56;5088762;27;67257;-33
2023/11/13 00:08:35;;;;;;;;;;;;;;;28.60;57.14;101042.44;5091005;27;70779;-34
2023/11/13 00:11:05;;;;;;;;;;;;;;;28.68;57.69;101050.38;5093186;27;66960;-33
2023/11/13 00:13:35;;;;;;;;;;;;;;;28.77;58.13;101056.44;5094198;27;70313;-34
2023/11/13 00:16:04;;;;;;;;;;;;;;;29.04;75.50;101059.25;5072070;27;66318;-34
2023/11/13 00:18:34;;;;;;;;;;;;;;;29.11;78.42;101070.91;5094446;27;69155;-34
2023/11/13 00:21:04;;;;;;;;;;;;;;;29.18;77.51;101066.34;5097295;27;66328;-33
2023/11/13 00:23:37;;;;;;;;;;;;;;;29.25;77.41;101078.00;5092619;27;70379;-34
2023/11/13 00:26:06;;;;;;;;;;;;;;;29.30;76.76;101075.50;5091606;27;66357;-33
2023/11/13 00:28:37;;;;;;;;;;;;;;;29.32;76.44;101068.03;5096208;27;70359;-33
2023/11/13 00:31:08;;;;;;;;;;;;;;;29.37;76.17;101070.97;5094665;27;66953;-33
2023/11/13 00:33:38;;;;;;;;;;;;;;;29.42;75.83;101083.03;5071221;27;68876;-33
2023/11/13 00:36:08;;;;;;;;;;;;;;;29.43;76.09;101085.53;5090970;27;67135;-34
2023/11/13 00:38:38;;;;;;;;;;;;;;;29.47;76.32;101085.94;5093715;27;70409;-34
2023/11/13 00:41:11;;;;;;;;;;;;;;;29.48;74.22;101098.44;5097495;27;66186;-32
2023/11/13 00:43:42;;;;;;;;;;;;;;;29.46;72.10;101097.81;5096718;27;71179;-32
2023/11/13 00:46:12;;;;;;;;;;;;;;;29.49;70.56;101094.69;5078201;27;66870;-32
2023/11/13 00:48:41;;;;;;;;;;;;;;;29.53;68.74;101106.72;5058238;27;69064;-32
2023/11/13 00:51:13;;;;;;;;;;;;;;;29.57;68.26;101105.31;5096564;27;66578;-31
2023/11/13 00:53:44;;;;;;;;;;;;;;;29.60;67.18;101107.59;5074575;27;69897;-32
2023/11/13 00:56:14;;;;;;;;;;;;;;;29.64;67.03;101113.44;5083600;27;66377;-33
2023/11/13 00:58:45;;;;;;;;;;;;;;;29.66;66.07;101100.56;5094174;27;70223;-35
2023/11/13 01:01:15;;;;;;;;;;;;;;;29.69;66.33;101100.97;5077715;27;66197;-32
2023/11/13 01:03:46;;;;;;;;;;;;;;;29.72;65.44;101097.84;5094611;27;70537;-32
2023/11/13 01:06:17;;;;;;;;;;;;;;;29.75;65.13;101110.94;5075514;27;66433;-33
2023/11/13 01:08:47;;;;;;;;;;;;;;;29.77;65.13;101119.69;5087930;27;70446;-32
2023/11/13 01:11:16;;;;;;;;;;;;;;;29.81;64.99;101122.81;5094078;27;66886;-33
2023/11/13 01:13:46;;;;;;;;;;;;;;;29.83;64.77;101123.44;5073831;27;70380;-33
2023/11/13 01:16:18;;;;;;;;;;;;;;;29.86;64.62;101133.00;5102274;27;66588;-34
2023/11/13 01:18:53;;;;;;;;;;;;;;;29.89;64.49;101146.94;5103741;27;70247;-33
2023/11/13 01:21:23;;;;;;;;;;;;;;;29.92;64.49;101148.41;5102088;27;65774;-32
2023/11/13 01:23:52;;;;;;;;;;;;;;;29.94;64.60;101146.31;5085689;27;69950;-33
2023/11/13 01:26:22;;;;;;;;;;;;;;;29.95;64.36;101143.44;5103001;27;66769;-34
2023/11/13 01:28:52;;;;;;;;;;;;;;;29.99;64.03;101138.44;5100621;27;69723;-33
2023/11/13 01:31:21;;;;;;;;;;;;;;;30.00;64.25;101138.19;5072530;27;66815;-33
2023/11/13 01:33:51;;;;;;;;;;;;;;;30.03;64.05;101136.97;5102456;27;70284;-32
2023/11/13 01:36:21;;;;;;;;;;;;;;;30.04;63.67;101142.16;5101353;27;66970;-34
2023/11/13 01:38:52;;;;;;;;;;;;;;;30.06;64.22;101150.06;5101903;27;70488;-33
2023/11/13 01:41:21;;;;;;;;;;;;;;;30.09;63.57;101144.25;5081960;27;66570;-32
2023/11/13 01:43:51;;;;;;;;;;;;;;;30.11;63.77;101141.34;5100281;27;70658;-33
2023/11/13 01:46:21;;;;;;;;;;;;;;;30.12;63.90;101153.84;5102779;27;66691;-33
2023/11/13 01:48:53;;;;;;;;;;;;;;;30.14;63.91;101155.25;5083865;27;70327;-33
2023/11/13 01:51:24;;;;;;;;;;;;;;;30.15;63.67;101159.66;5101713;27;66261;-33
2023/11/13 01:53:59;;;;;;;;;;;;;;;30.17;63.59;101157.59;5102905;27;70048;-33
2023/11/13 01:56:30;;;;;;;;;;;;;;;30.20;63.40;101167.13;5099968;27;65828;-32
2023/11/13 01:58:59;;;;;;;;;;;;;;;30.21;63.19;101158.81;5076254;27;69902;-34
2023/11/13 02:01:30;;;;;;;;;;;;;;;30.23;63.63;101162.19;5076558;27;66814;-32
2023/11/13 02:04:00;;;;;;;;;;;;;;;30.25;63.47;101154.66;5101094;27;70268;-32
2023/11/13 02:06:30;;;;;;;;;;;;;;;30.27;63.57;101152.59;5102619;27;66792;-33
2023/11/13 02:09:00;;;;;;;;;;;;;;;30.30;63.29;101155.94;5083914;27;69739;-32
2023/11/13 02:11:30;;;;;;;;;;;;;;;30.32;63.35;101153.84;5077626;27;66825;-32
2023/11/13 02:14:00;;;;;;;;;;;;;;;30.33;63.12;101153.63;5097830;27;70640;-33
2023/11/13 02:16:30;;;;;;;;;;;;;;;30.36;63.33;101155.06;5099673;27;66227;-33
2023/11/13 02:19:00;;;;;;;;;;;;;;;30.38;63.34;101144.88;5082296;27;70197;-32
2023/11/13 02:21:32;;;;;;;;;;;;;;;30.40;63.08;101145.50;5083590;27;66130;-33
2023/11/13 02:24:04;;;;;;;;;;;;;;;30.42;62.83;101138.00;5101736;27;69841;-32
2023/11/13 02:26:34;;;;;;;;;;;;;;;30.44;63.23;101133.19;5100774;27;66223;-32
2023/11/13 02:29:05;;;;;;;;;;;;;;;30.46;63.09;101133.84;5100195;27;70354;-32
2023/11/13 02:31:34;;;;;;;;;;;;;;;30.49;62.99;101128.00;5081301;27;66665;-33
2023/11/13 02:34:04;;;;;;;;;;;;;;;30.50;62.85;101116.09;5100802;27;69366;-33
2023/11/13 02:36:35;;;;;;;;;;;;;;;30.53;63.14;101112.97;5083625;27;67131;-33
2023/11/13 02:39:06;;;;;;;;;;;;;;;30.55;62.84;101121.72;5102275;27;70440;-34
2023/11/13 02:41:39;;;;;;;;;;;;;;;30.58;63.08;101117.75;5100146;27;59313;-32
2023/11/13 02:44:09;;;;;;;;;;;;;;;30.60;62.92;101119.22;5101737;27;69813;-32
2023/11/13 02:46:39;;;;;;;;;;;;;;;30.62;62.81;101113.56;5101611;27;66758;-33
2023/11/13 02:49:09;;;;;;;;;;;;;;;30.65;62.50;101111.28;5100584;27;70867;-32
2023/11/13 02:51:38;;;;;;;;;;;;;;;30.66;62.92;101107.53;5083470;27;66829;-32
2023/11/13 02:54:09;;;;;;;;;;;;;;;30.69;62.99;101101.69;5083058;27;70280;-32
2023/11/13 02:56:38;;;;;;;;;;;;;;;30.71;62.64;101099.59;5100292;27;66668;-37
2023/11/13 02:59:08;;;;;;;;;;;;;;;30.75;62.69;101110.00;5100193;27;70026;-32
2023/11/13 03:01:38;;;;;;;;;;;;;;;30.77;62.36;101097.09;5099119;27;66177;-32
2023/11/13 03:04:09;;;;;;;;;;;;;;;30.78;62.30;101099.56;5080910;27;70557;-33
2023/11/13 03:06:39;;;;;;;;;;;;;;;30.81;62.47;101098.34;5080059;27;67415;-32
2023/11/13 03:09:10;;;;;;;;;;;;;;;30.84;62.53;101087.94;5074166;27;70935;-33
2023/11/13 03:11:40;;;;;;;;;;;;;;;30.87;62.23;101082.06;5096316;27;67095;-33
2023/11/13 03:14:10;;;;;;;;;;;;;;;30.90;62.58;101086.22;5099296;27;69909;-33
2023/11/13 03:16:40;;;;;;;;;;;;;;;30.92;62.30;101076.00;5100474;27;66658;-32
2023/11/13 03:19:10;;;;;;;;;;;;;;;30.94;62.12;101077.44;5076623;27;70423;-32
2023/11/13 03:21:40;;;;;;;;;;;;;;;30.97;62.48;101084.31;5100033;27;66376;-35
2023/11/13 03:24:10;;;;;;;;;;;;;;;31.00;62.57;101085.75;5100805;27;70038;-33
2023/11/13 03:26:40;;;;;;;;;;;;;;;31.02;62.38;101075.53;5101289;27;65772;-33
2023/11/13 03:29:11;;;;;;;;;;;;;;;31.04;62.05;101071.56;5078590;27;70308;-32
2023/11/13 03:31:41;;;;;;;;;;;;;;;30.90;62.09;101037.47;5080186;28;66817;-33
2023/11/13 03:34:11;;;;;;;;;;;;;;;31.08;62.06;101067.34;5080930;27;69667;-33
2023/11/13 03:36:41;;;;;;;;;;;;;;;31.11;61.87;101069.63;5078396;27;66631;-33
2023/11/13 03:39:11;;;;;;;;;;;;;;;31.13;62.33;101070.25;5081268;27;70327;-32
2023/11/13 03:41:41;;;;;;;;;;;;;;;31.16;61.93;101067.09;5081374;27;66641;-32
2023/11/13 03:44:10;;;;;;;;;;;;;;;31.19;62.13;101063.13;5073902;28;69654;-32
2023/11/13 03:46:40;;;;;;;;;;;;;;;31.22;61.74;101067.28;5074110;27;66705;-32
2023/11/13 03:49:10;;;;;;;;;;;;;;;31.24;61.69;101054.34;5080180;27;70347;-33
2023/11/13 03:51:40;;;;;;;;;;;;;;;31.27;61.73;101056.63;5081151;27;65555;-33
2023/11/13 03:54:10;;;;;;;;;;;;;;;31.29;61.69;101052.66;5080201;27;70551;-33
2023/11/13 03:56:40;;;;;;;;;;;;;;;31.32;61.81;101046.78;5076298;27;66385;-32
2023/11/13 03:59:09;;;;;;;;;;;;;;;31.35;61.80;101042.81;5077024;28;70641;-33
2023/11/13 04:01:40;;;;;;;;;;;;;;;31.37;61.72;101035.28;5079067;27;66636;-32
2023/11/13 04:04:10;;;;;;;;;;;;;;;31.40;61.50;101029.47;5080457;27;70460;-34
2023/11/13 04:06:40;;;;;;;;;;;;;;;31.41;61.44;101022.97;5080632;28;65618;-33
2023/11/13 04:09:10;;;;;;;;;;;;;;;31.45;61.63;101017.94;5078121;28;69173;-32
2023/11/13 04:11:40;;;;;;;;;;;;;;;31.46;61.29;101025.03;5080459;27;66965;-33
2023/11/13 04:14:09;;;;;;;;;;;;;;;31.48;61.69;101017.50;5077147;27;70679;-33
2023/11/13 04:16:39;;;;;;;;;;;;;;;31.52;61.72;101013.31;5079620;28;66385;-32
2023/11/13 04:19:09;;;;;;;;;;;;;;;31.53;61.57;101004.94;5080389;27;69407;-34
2023/11/13 04:21:39;;;;;;;;;;;;;;;31.55;61.49;100997.41;5081108;28;67175;-33
2023/11/13 04:24:09;;;;;;;;;;;;;;;31.57;61.76;101014.31;5079727;27;70153;-32
2023/11/13 04:26:39;;;;;;;;;;;;;;;31.60;61.55;100999.47;5076477;27;66138;-33
2023/11/13 04:29:08;;;;;;;;;;;;;;;31.59;61.55;100982.38;5078998;28;69921;-32
2023/11/13 04:31:38;;;;;;;;;;;;;;;31.63;61.53;100976.50;5079061;27;66184;-33
2023/11/13 04:34:08;;;;;;;;;;;;;;;31.65;61.46;100971.66;5081359;27;70841;-31
2023/11/13 04:36:41;;;;;;;;;;;;;;;31.67;61.27;100977.69;5080371;27;66611;-32
2023/11/13 04:39:12;;;;;;;;;;;;;;;31.70;61.20;100971.81;5082475;27;69408;-33
2023/11/13 04:41:43;;;;;;;;;;;;;;;31.73;61.23;100971.38;5083124;27;66655;-33
2023/11/13 04:44:13;;;;;;;;;;;;;;;31.63;61.20;100949.38;5083061;27;69775;-33
2023/11/13 04:46:43;;;;;;;;;;;;;;;31.78;61.04;100968.81;5083172;27;67338;-32
2023/11/13 04:49:14;;;;;;;;;;;;;;;31.81;61.04;100968.38;5077801;27;69672;-32
2023/11/13 04:51:44;;;;;;;;;;;;;;;31.84;60.94;100967.91;5083946;27;67660;-33
2023/11/13 04:54:14;;;;;;;;;;;;;;;31.87;60.82;100967.47;5081977;27;70561;-35
2023/11/13 04:56:44;;;;;;;;;;;;;;;31.90;60.91;100961.63;5075670;27;66036;-33
2023/11/13 04:59:14;;;;;;;;;;;;;;;31.93;60.76;100949.50;5079237;27;70602;-33
2023/11/13 05:01:44;;;;;;;;;;;;;;;31.96;60.72;100949.06;5083011;27;66295;-33
2023/11/13 05:04:13;;;;;;;;;;;;;;;31.98;60.45;100947.78;5083568;27;70015;-33
2023/11/13 05:06:44;;;;;;;;;;;;;;;32.01;60.50;100936.47;5082311;28;66834;-33
2023/11/13 05:09:14;;;;;;;;;;;;;;;32.02;60.54;100930.00;5082311;27;69711;-32
2023/11/13 05:11:44;;;;;;;;;;;;;;;32.05;60.47;100926.81;5083534;28;65500;-33
2023/11/13 05:14:14;;;;;;;;;;;;;;;32.07;60.57;100926.59;5075258;27;70553;-32
2023/11/13 05:16:44;;;;;;;;;;;;;;;32.10;60.45;100917.19;5082177;27;66993;-33
2023/11/13 05:19:17;;;;;;;;;;;;;;;32.13;60.14;100912.13;5083877;27;70865;-34
2023/11/13 05:21:47;;;;;;;;;;;;;;;32.15;60.27;100904.59;5083687;27;65483;-33
2023/11/13 05:24:16;;;;;;;;;;;;;;;32.19;60.22;100899.53;5081500;27;70359;-32
2023/11/13 05:26:47;;;;;;;;;;;;;;;32.21;60.24;100902.84;5083028;28;66178;-34
2023/11/13 05:29:18;;;;;;;;;;;;;;;32.23;60.07;100906.13;5075901;28;68936;-34
2023/11/13 05:31:47;;;;;;;;;;;;;;;32.25;60.09;100894.00;5079700;27;66922;-33
2023/11/13 05:34:18;;;;;;;;;;;;;;;32.27;59.81;100907.34;5083043;27;70342;-35
2023/11/13 05:36:47;;;;;;;;;;;;;;;32.30;59.87;100893.31;5082792;27;66924;-33
2023/11/13 05:39:17;;;;;;;;;;;;;;;32.32;59.76;100890.34;5080531;27;69749;-34
2023/11/13 05:41:47;;;;;;;;;;;;;;;32.34;59.78;100880.91;5082513;27;66630;-33
2023/11/13 05:44:17;;;;;;;;;;;;;;;32.37;59.61;100883.16;5082709;27;70798;-35
2023/11/13 05:46:46;;;;;;;;;;;;;;;32.39;59.46;100872.91;5081477;27;65720;-34
2023/11/13 05:49:16;;;;;;;;;;;;;;;32.40;59.48;100857.44;5079590;27;70988;-34
2023/11/13 05:51:46;;;;;;;;;;;;;;;32.43;59.50;100863.28;5081857;27;66183;-33
2023/11/13 05:54:18;;;;;;;;;;;;;;;32.44;59.34;100856.78;5081618;27;70831;-32
2023/11/13 05:56:48;;;;;;;;;;;;;;;32.47;59.35;100855.50;5083273;27;66303;-34
2023/11/13 05:59:18;;;;;;;;;;;;;;;32.49;59.28;100856.13;5081743;28;69627;-33
2023/11/13 06:01:49;;;;;;;;;;;;;;;32.52;59.17;100843.97;5073947;27;67031;-36
2023/11/13 06:04:19;;;;;;;;;;;;;;;32.54;59.41;100842.69;5081295;27;72075;-33
2023/11/13 06:06:48;;;;;;;;;;;;;;;32.56;59.12;100839.72;5083113;27;66507;-32
2023/11/13 06:09:18;;;;;;;;;;;;;;;32.58;59.18;100832.16;5082793;28;70730;-33
2023/11/13 06:11:48;;;;;;;;;;;;;;;32.61;58.95;100831.69;5077352;27;66998;-35
2023/11/13 06:14:19;;;;;;;;;;;;;;;32.63;59.02;100826.88;5075940;27;70682;-33
2023/11/13 06:16:49;;;;;;;;;;;;;;;32.64;58.78;100818.47;5069699;28;67512;-33
2023/11/13 06:19:19;;;;;;;;;;;;;;;32.67;58.80;100809.03;5081825;27;70290;-33
2023/11/13 06:21:51;;;;;;;;;;;;;;;32.69;58.73;100807.72;5082998;27;66958;-33
2023/11/13 06:24:21;;;;;;;;;;;;;;;32.71;58.78;100800.19;5081965;27;70571;-33
2023/11/13 06:26:51;;;;;;;;;;;;;;;32.75;58.53;100795.09;5082674;27;66687;-32
2023/11/13 06:29:21;;;;;;;;;;;;;;;32.76;58.50;100785.06;5093352;27;69164;-34
2023/11/13 06:31:52;;;;;;;;;;;;;;;32.78;58.53;100789.19;5103099;27;66424;-34
2023/11/13 06:34:22;;;;;;;;;;;;;;;32.81;58.43;100782.47;5101196;27;70492;-33
2023/11/13 06:36:52;;;;;;;;;;;;;;;32.73;58.24;100759.19;5101651;27;66510;-32
2023/11/13 06:39:24;;;;;;;;;;;;;;;32.87;58.32;100776.09;5101623;27;69842;-33
2023/11/13 06:41:54;;;;;;;;;;;;;;;32.89;58.21;100768.53;5101553;27;67003;-33
2023/11/13 06:44:23;;;;;;;;;;;;;;;32.92;58.21;100762.63;5070992;27;69341;-34
2023/11/13 06:46:53;;;;;;;;;;;;;;;32.96;58.18;100768.41;5101501;27;66028;-34
2023/11/13 06:49:24;;;;;;;;;;;;;;;32.98;58.03;100760.84;5101647;27;70597;-33
2023/11/13 06:51:53;;;;;;;;;;;;;;;33.02;57.77;100753.91;5099824;27;67050;-34
2023/11/13 06:54:24;;;;;;;;;;;;;;;33.04;57.82;100746.34;5101302;27;70662;-35
2023/11/13 06:56:54;;;;;;;;;;;;;;;33.07;57.96;100759.44;5099817;27;67162;-36
2023/11/13 06:59:24;;;;;;;;;;;;;;;33.10;57.84;100753.56;5090348;27;69457;-34
2023/11/13 07:01:54;;;;;;;;;;;;;;;33.13;57.73;100750.34;5100571;27;65587;-33
2023/11/13 07:04:24;;;;;;;;;;;;;;;33.17;57.89;100743.38;5101137;27;70607;-37
2023/11/13 07:06:55;;;;;;;;;;;;;;;33.20;57.73;100742.88;5100181;27;67169;-33
2023/11/13 07:09:24;;;;;;;;;;;;;;;33.24;57.61;100737.78;5101205;27;70754;-33
2023/11/13 07:11:54;;;;;;;;;;;;;;;33.27;57.78;100732.72;5101189;27;67059;-34
2023/11/13 07:14:24;;;;;;;;;;;;;;;33.29;57.40;100721.59;5100153;27;70922;-32
2023/11/13 07:16:54;;;;;;;;;;;;;;;33.33;57.35;100718.16;5101167;27;66872;-34
2023/11/13 07:19:24;;;;;;;;;;;;;;;33.38;57.55;100723.69;5100658;27;70066;-33
2023/11/13 07:21:53;;;;;;;;;;;;;;;33.42;57.17;100717.78;5099460;27;66609;-33
2023/11/13 07:24:24;;;;;;;;;;;;;;;33.46;57.43;100718.94;5100806;27;69971;-32
2023/11/13 07:26:53;;;;;;;;;;;;;;;33.50;57.01;100722.84;5101247;27;66637;-34
2023/11/13 07:29:23;;;;;;;;;;;;;;;33.53;57.08;100730.53;5098131;27;70115;-35
2023/11/13 07:31:53;;;;;;;;;;;;;;;33.56;56.95;100720.00;5082701;27;66997;-34
2023/11/13 07:34:23;;;;;;;;;;;;;;;33.59;56.88;100724.94;5081335;27;70836;-33
2023/11/13 07:36:53;;;;;;;;;;;;;;;33.64;56.74;100723.41;5099619;27;66281;-34
2023/11/13 07:39:27;;;;;;;;;;;;;;;33.67;56.79;100722.91;5080003;27;70651;-33
2023/11/13 07:41:58;;;;;;;;;;;;;;;33.70;56.54;100720.53;5101391;27;66044;-34
2023/11/13 07:44:27;;;;;;;;;;;;;;;33.74;56.34;100710.81;5078694;27;70766;-33
2023/11/13 07:46:57;;;;;;;;;;;;;;;33.79;56.46;100712.78;5100984;27;65926;-33
2023/11/13 07:49:27;;;;;;;;;;;;;;;33.84;56.46;100706.63;5102463;27;70058;-33
2023/11/13 07:51:58;;;;;;;;;;;;;;;33.89;56.29;100714.88;5098829;27;64817;-33
2023/11/13 07:54:29;;;;;;;;;;;;;;;33.93;56.05;100702.41;5082739;27;69928;-34
2023/11/13 07:56:58;;;;;;;;;;;;;;;33.97;56.35;100698.16;5081043;27;66540;-34
2023/11/13 07:59:28;;;;;;;;;;;;;;;34.01;55.77;100704.75;5099425;27;70418;-37
2023/11/13 08:01:58;;;;;;;;;;;;;;;34.06;55.65;100704.03;5067137;27;65400;-34
2023/11/13 08:04:28;;;;;;;;;;;;;;;34.09;55.88;100707.09;5083262;27;70049;-33
2023/11/13 08:06:59;;;;;;;;;;;;;;;34.14;55.68;100692.75;5081933;27;66354;-33
2023/11/13 08:09:44;;;;;;;;;;;;;;;34.19;55.52;100707.28;5100357;27;68884;-33
2023/11/13 08:12:14;;;;;;;;;;;;;;;34.24;55.84;100698.34;5080808;27;65803;-36
2023/11/13 08:14:44;;;;;;;;;;;;;;;34.28;55.12;100702.25;5100852;27;69651;-33
2023/11/13 08:17:13;;;;;;;;;;;;;;;34.33;55.52;100701.50;5101294;27;66094;-34
2023/11/13 08:19:43;;;;;;;;;;;;;;;34.38;55.07;100712.44;5098935;27;71014;-34
2023/11/13 08:22:13;;;;;;;;;;;;;;;34.42;55.38;100706.28;5101440;27;66437;-33
2023/11/13 08:24:43;;;;;;;;;;;;;;;34.47;54.69;100710.97;5099752;27;69731;-35
2023/11/13 08:27:15;;;;;;;;;;;;;;;34.53;55.23;100715.44;5099352;27;66755;-33
2023/11/13 08:29:45;;;;;;;;;;;;;;;34.59;54.64;100708.19;5096736;27;68890;-34
2023/11/13 08:32:17;;;;;;;;;;;;;;;34.63;55.11;100702.00;5100290;27;66780;-33
2023/11/13 08:34:47;;;;;;;;;;;;;;;34.67;54.79;100703.13;5080900;27;71008;-33
2023/11/13 08:37:18;;;;;;;;;;;;;;;34.74;54.71;100707.56;5099430;27;66450;-34
2023/11/13 08:39:48;;;;;;;;;;;;;;;34.78;54.25;100700.56;5098298;27;69807;-33
2023/11/13 08:42:18;;;;;;;;;;;;;;;34.83;54.02;100701.44;5100716;27;66459;-34
2023/11/13 08:44:48;;;;;;;;;;;;;;;34.88;54.37;100697.94;5100413;27;69216;-33
2023/11/13 08:47:21;;;;;;;;;;;;;;;34.92;54.20;100705.38;5101154;27;65524;-32
2023/11/13 08:49:52;;;;;;;;;;;;;;;34.97;53.87;100696.47;5101258;27;69736;-33
2023/11/13 08:52:22;;;;;;;;;;;;;;;35.01;53.49;100703.03;5100499;27;66121;-33
2023/11/13 08:54:52;;;;;;;;;;;;;;;35.07;53.54;100706.69;5099606;27;69631;-32
2023/11/13 08:57:23;;;;;;;;;;;;;;;35.10;53.40;100703.44;5101164;27;67075;-33
2023/11/13 08:59:53;;;;;;;;;;;;;;;35.14;53.81;100713.59;5091842;27;69844;-33
2023/11/13 09:02:25;;;;;;;;;;;;;;;35.19;53.07;100720.19;5099118;27;66920;-34
2023/11/13 09:04:55;;;;;;;;;;;;;;;35.21;53.52;100720.75;5094911;27;69521;-33
2023/11/13 09:07:25;;;;;;;;;;;;;;;35.25;53.53;100709.09;5100246;27;65930;-34
2023/11/13 09:09:55;;;;;;;;;;;;;;;35.28;53.23;100724.94;5079787;27;69730;-34
2023/11/13 09:12:28;;;;;;;;;;;;;;;35.32;52.87;100725.25;5099835;27;64571;-34
2023/11/13 09:14:57;;;;;;;;;;;;;;;35.34;52.67;100725.84;5096652;27;70433;-34
2023/11/13 09:17:29;;;;;;;;;;;;;;;35.38;53.25;100724.22;5074591;27;64647;-32
2023/11/13 09:19:59;;;;;;;;;;;;;;;35.00;54.22;100719.66;5095272;27;69811;-34
2023/11/13 09:22:31;;;;;;;;;;;;;;;34.65;56.64;100727.06;5094838;27;65894;-34
2023/11/13 09:25:01;;;;;;;;;;;;;;;34.43;57.53;100728.88;5078875;27;69382;-34
2023/11/13 09:27:32;;;;;;;;;;;;;;;34.52;58.03;100727.41;5097355;27;66242;-34
2023/11/13 09:30:04;;;;;;;;;;;;;;;34.62;57.92;100722.13;5095040;27;70500;-34
2023/11/13 09:32:36;;;;;;;;;;;;;;;34.85;58.11;100726.56;5087018;27;66459;-35
2023/11/13 09:35:06;;;;;;;;;;;;;;;35.06;56.89;100719.50;5101329;27;69849;-35
2023/11/13 09:37:40;;;;;;;;;;;;;;;35.19;56.53;100715.56;5101596;27;66403;-35
2023/11/13 09:40:14;;;;;;;;;;;;;;;35.29;56.32;100720.31;5102045;27;70090;-35
2023/11/13 09:42:45;;;;;;;;;;;;;;;35.33;56.15;100722.28;5101882;27;66977;-34
2023/11/13 09:45:15;;;;;;;;;;;;;;;35.38;56.69;100728.88;5080256;27;69726;-35
2023/11/13 09:47:45;;;;;;;;;;;;;;;35.40;55.97;100726.72;5101716;27;65731;-35
2023/11/13 09:50:16;;;;;;;;;;;;;;;35.44;56.29;100733.31;5101431;27;70402;-34
2023/11/13 09:52:48;;;;;;;;;;;;;;;35.45;56.44;100741.25;5089719;27;66963;-35
2023/11/13 09:55:20;;;;;;;;;;;;;;;35.45;56.32;100730.31;5101881;27;70221;-34
2023/11/13 09:57:53;;;;;;;;;;;;;;;35.46;56.48;100740.16;5083809;27;66375;-34
2023/11/13 10:00:24;;;;;;;;;;;;;;;35.46;56.63;100742.88;5101434;27;71641;-34
2023/11/13 10:02:54;;;;;;;;;;;;;;;35.45;56.09;100746.69;5101607;27;65974;-35
2023/11/13 10:05:30;;;;;;;;;;;;;;;35.45;56.57;100748.59;5102038;27;69967;-33
2023/11/13 10:08:02;;;;;;;;;;;;;;;35.44;56.12;100755.97;5101136;27;66297;-34
2023/11/13 10:10:32;;;;;;;;;;;;;;;35.43;56.71;100765.22;5099659;27;69796;-35
2023/11/13 10:13:04;;;;;;;;;;;;;;;35.42;56.36;100763.56;5101405;27;66266;-34
2023/11/13 10:15:37;;;;;;;;;;;;;;;35.41;56.40;100763.81;5101617;27;70237;-34
2023/11/13 10:18:12;;;;;;;;;;;;;;;35.38;57.08;100765.16;5102957;27;66151;-34
2023/11/13 10:20:45;;;;;;;;;;;;;;;35.35;56.66;100761.06;5101461;27;71134;-34
2023/11/13 10:23:17;;;;;;;;;;;;;;;35.34;57.45;100761.28;5095752;27;66388;-34
2023/11/13 10:25:52;;;;;;;;;;;;;;;34.95;58.11;100746.84;5095291;27;70716;-37
2023/11/13 10:28:36;;;;;;;;;;;;;;;34.98;58.32;100763.50;5092320;27;66201;-35
2023/11/13 10:31:17;;;;;;;;;;;;;;;34.95;58.96;100768.66;5078814;27;70052;-34
2023/11/13 10:34:02;;;;;;;;;;;;;;;34.93;59.17;100774.34;5089765;27;66931;-34
2023/11/13 10:36:32;;;;;;;;;;;;;;;34.70;59.89;100773.47;5086934;27;69765;-36
2023/11/13 10:39:11;;;;;;;;;;;;;;;34.35;60.82;100776.44;5094644;27;65447;-35
2023/11/13 10:41:49;;;;;;;;;;;;;;;34.24;61.77;100780.88;5082064;27;70747;-36
2023/11/13 10:44:22;;;;;;;;;;;;;;;34.09;61.94;100783.31;5092873;27;66831;-35
2023/11/13 10:46:52;;;;;;;;;;;;;;;34.03;62.84;100787.81;5094378;27;70617;-34
2023/11/13 10:49:22;;;;;;;;;;;;;;;33.98;62.82;100786.88;5087428;27;66014;-35
2023/11/13 10:51:54;;;;;;;;;;;;;;;33.97;63.19;100798.84;5091869;27;70583;-36
2023/11/13 10:54:25;;;;;;;;;;;;;;;33.92;63.45;100794.13;5087686;27;66514;-35
2023/11/13 10:56:58;;;;;;;;;;;;;;;33.85;63.37;100792.63;5090299;27;69209;-35
2023/11/13 10:59:28;;;;;;;;;;;;;;;33.85;63.90;100798.06;5091256;27;66338;-36
2023/11/13 11:02:00;;;;;;;;;;;;;;;33.80;64.19;100805.06;5088062;27;70256;-34
2023/11/13 11:04:30;;;;;;;;;;;;;;;34.00;63.62;100796.47;5091681;27;66629;-35
2023/11/13 11:07:01;;;;;;;;;;;;;;;34.26;62.65;100799.66;5088125;27;70384;-35
2023/11/13 11:09:33;;;;;;;;;;;;;;;34.39;61.48;100801.25;5094205;27;66964;-36
2023/11/13 11:12:03;;;;;;;;;;;;;;;34.47;61.37;100807.13;5093868;27;69310;-36
2023/11/13 11:14:43;;;;;;;;;;;;;;;34.53;60.96;100816.19;5097038;27;65659;-35
2023/11/13 11:17:19;;;;;;;;;;;;;;;34.57;61.54;100822.81;5086357;27;70648;-36
2023/11/13 11:19:52;;;;;;;;;;;;;;;34.60;60.96;100833.25;5079252;27;66733;-34
2023/11/13 11:22:27;;;;;;;;;;;;;;;34.61;61.48;100840.34;5093108;27;69796;-39
2023/11/13 11:25:11;;;;;;;;;;;;;;;34.63;60.98;100854.56;5088464;27;66962;-38
2023/11/13 11:27:43;;;;;;;;;;;;;;;34.63;61.09;100854.56;5090072;27;70330;-36
2023/11/13 11:30:22;;;;;;;;;;;;;;;34.63;61.56;100860.00;5095594;27;65703;-35
2023/11/13 11:32:55;;;;;;;;;;;;;;;34.63;61.05;100865.44;5087249;27;70261;-34
2023/11/13 11:35:29;;;;;;;;;;;;;;;34.63;60.86;100868.19;5090596;27;66947;-35
2023/11/13 11:38:18;;;;;;;;;;;;;;;34.63;61.20;100870.91;5098199;27;71175;-36
2023/11/13 11:40:49;;;;;;;;;;;;;;;34.63;61.24;100883.66;5092713;27;66885;-38
2023/11/13 11:43:22;;;;;;;;;;;;;;;34.62;60.97;100891.03;5080880;27;69795;-37
2023/11/13 11:45:53;;;;;;;;;;;;;;;34.60;61.24;100898.63;5101759;27;66669;-35
2023/11/13 11:48:23;;;;;;;;;;;;;;;34.58;61.38;100899.94;5082308;27;69667;-35
2023/11/13 11:50:56;;;;;;;;;;;;;;;34.57;61.49;100910.00;5101810;27;67295;-36
2023/11/13 11:53:29;;;;;;;;;;;;;;;34.57;61.33;100920.06;5091119;27;70544;-35
2023/11/13 11:55:59;;;;;;;;;;;;;;;34.56;61.27;100934.78;5102526;27;66045;-35
2023/11/13 11:58:29;;;;;;;;;;;;;;;34.53;61.40;100938.78;5101604;27;69654;-37
2023/11/13 12:00:59;;;;;;;;;;;;;;;34.52;61.58;100939.84;5096794;27;66959;-35
2023/11/13 12:03:29;;;;;;;;;;;;;;;34.49;61.80;100934.88;5115643;27;70406;-34
2023/11/13 12:05:59;;;;;;;;;;;;;;;34.46;61.72;100930.75;5102597;27;67102;-36
2023/11/13 12:08:30;;;;;;;;;;;;;;;34.45;61.96;100933.72;5101907;27;69964;-35
2023/11/13 12:11:02;;;;;;;;;;;;;;;34.41;61.87;100938.84;5101563;27;66279;-36
2023/11/13 12:13:32;;;;;;;;;;;;;;;34.26;62.15;100909.41;5102026;27;69801;-37
2023/11/13 12:16:02;;;;;;;;;;;;;;;34.39;62.21;100930.06;5101387;27;67019;-36
2023/11/13 12:18:32;;;;;;;;;;;;;;;34.37;62.58;100942.28;5100912;27;69740;-36
2023/11/13 12:21:02;;;;;;;;;;;;;;;34.35;62.27;100944.41;5101949;27;66855;-35
2023/11/13 12:23:32;;;;;;;;;;;;;;;34.32;62.37;100950.34;5079691;27;69082;-37
2023/11/13 12:26:04;;;;;;;;;;;;;;;34.30;62.43;100952.47;5083167;27;65354;-37
2023/11/13 12:28:43;;;;;;;;;;;;;;;34.27;62.81;100959.25;5102199;27;70787;-35
2023/11/13 12:31:17;;;;;;;;;;;;;;;34.25;62.68;100967.66;5100468;27;66336;-35
2023/11/13 12:33:47;;;;;;;;;;;;;;;34.13;63.72;100972.31;5083570;27;70570;-37
2023/11/13 12:36:17;;;;;;;;;;;;;;;33.76;65.17;100985.34;5080648;27;66003;-37
2023/11/13 12:38:47;;;;;;;;;;;;;;;33.59;66.04;100985.22;5099021;27;70497;-37
2023/11/13 12:41:20;;;;;;;;;;;;;;;33.43;67.20;100980.44;5101479;27;66011;-36
2023/11/13 12:43:50;;;;;;;;;;;;;;;33.37;67.67;100991.19;5097674;27;69980;-37
2023/11/13 12:46:23;;;;;;;;;;;;;;;33.29;68.26;100999.72;5072437;27;66182;-36
2023/11/13 12:48:59;;;;;;;;;;;;;;;33.28;68.93;101011.66;5101126;27;70457;-35
2023/11/13 12:51:29;;;;;;;;;;;;;;;33.22;68.44;101012.59;5081771;27;65567;-35
2023/11/13 12:53:59;;;;;;;;;;;;;;;33.20;68.57;101013.88;5100487;27;70104;-35